sensor_id;sensor_type;location;lat;lon;timestamp;P1;durP1;ratioP1;P2;durP2;ratioP2
22040;SDS011;11184;52.444;13.578;2023-07-16T00:02:15;10.57;;;6.93;;
22040;SDS011;11184;52.444;13.578;2023-07-16T00:05:00;7.55;;;6.88;;
22040;SDS011;11184;52.444;13.578;2023-07-16T00:07:44;7.10;;;6.50;;
22040;SDS011;11184;52.444;13.578;2023-07-16T00:10:29;7.55;;;6.88;;
22040;SDS011;11184;52.444;13.578;2023-07-16T00:13:14;6.13;;;5.53;;
22040;SDS011;11184;52.444;13.578;2023-07-16T00:15:58;7.20;;;6.60;;
22040;SDS011;11184;52.444;13.578;2023-07-16T00:18:44;6.50;;;6.10;;
22040;SDS011;11184;52.444;13.578;2023-07-16T00:21:29;6.78;;;6.00;;
22040;SDS011;11184;52.444;13.578;2023-07-16T00:24:13;6.25;;;5.78;;
22040;SDS011;11184;52.444;13.578;2023-07-16T00:26:58;5.82;;;4.88;;
22040;SDS011;11184;52.444;13.578;2023-07-16T00:29:43;5.47;;;5.05;;
22040;SDS011;11184;52.444;13.578;2023-07-16T00:32:27;7.15;;;6.45;;
22040;SDS011;11184;52.444;13.578;2023-07-16T00:35:12;5.57;;;5.18;;
22040;SDS011;11184;52.444;13.578;2023-07-16T00:37:56;6.68;;;6.18;;
22040;SDS011;11184;52.444;13.578;2023-07-16T00:40:41;7.38;;;6.25;;
22040;SDS011;11184;52.444;13.578;2023-07-16T00:43:25;5.88;;;5.32;;
22040;SDS011;11184;52.444;13.578;2023-07-16T00:46:10;7.28;;;6.60;;
22040;SDS011;11184;52.444;13.578;2023-07-16T00:48:55;7.43;;;6.75;;
22040;SDS011;11184;52.444;13.578;2023-07-16T00:51:40;6.20;;;5.70;;
22040;SDS011;11184;52.444;13.578;2023-07-16T00:54:25;5.50;;;5.10;;
22040;SDS011;11184;52.444;13.578;2023-07-16T00:57:10;6.28;;;5.78;;
22040;SDS011;11184;52.444;13.578;2023-07-16T00:59:54;7.55;;;6.95;;
22040;SDS011;11184;52.444;13.578;2023-07-16T01:02:39;6.57;;;6.18;;
22040;SDS011;11184;52.444;13.578;2023-07-16T01:05:24;6.18;;;5.75;;
22040;SDS011;11184;52.444;13.578;2023-07-16T01:08:09;6.80;;;6.30;;
22040;SDS011;11184;52.444;13.578;2023-07-16T01:10:55;6.63;;;6.03;;
22040;SDS011;11184;52.444;13.578;2023-07-16T01:13:39;6.40;;;5.90;;
22040;SDS011;11184;52.444;13.578;2023-07-16T01:16:25;11.30;;;6.35;;
22040;SDS011;11184;52.444;13.578;2023-07-16T01:19:10;7.70;;;7.07;;
22040;SDS011;11184;52.444;13.578;2023-07-16T01:27:50;8.05;;;7.45;;
22040;SDS011;11184;52.444;13.578;2023-07-16T01:30:37;10.10;;;9.20;;
22040;SDS011;11184;52.444;13.578;2023-07-16T01:33:23;9.32;;;8.57;;
22040;SDS011;11184;52.444;13.578;2023-07-16T01:36:08;7.90;;;7.18;;
22040;SDS011;11184;52.444;13.578;2023-07-16T01:38:53;7.85;;;7.32;;
22040;SDS011;11184;52.444;13.578;2023-07-16T01:41:37;10.52;;;8.02;;
22040;SDS011;11184;52.444;13.578;2023-07-16T01:44:22;9.32;;;6.53;;
22040;SDS011;11184;52.444;13.578;2023-07-16T01:47:10;5.78;;;5.28;;
22040;SDS011;11184;52.444;13.578;2023-07-16T01:49:56;5.75;;;4.13;;
22040;SDS011;11184;52.444;13.578;2023-07-16T01:52:40;5.30;;;4.72;;
22040;SDS011;11184;52.444;13.578;2023-07-16T01:55:25;6.15;;;5.35;;
22040;SDS011;11184;52.444;13.578;2023-07-16T01:58:10;5.25;;;4.82;;
22040;SDS011;11184;52.444;13.578;2023-07-16T02:00:54;7.32;;;5.15;;
22040;SDS011;11184;52.444;13.578;2023-07-16T02:03:39;4.22;;;3.83;;
22040;SDS011;11184;52.444;13.578;2023-07-16T02:06:23;4.97;;;4.57;;
22040;SDS011;11184;52.444;13.578;2023-07-16T02:09:08;7.88;;;4.50;;
22040;SDS011;11184;52.444;13.578;2023-07-16T02:11:53;4.63;;;4.07;;
22040;SDS011;11184;52.444;13.578;2023-07-16T02:14:37;4.45;;;4.07;;
22040;SDS011;11184;52.444;13.578;2023-07-16T02:17:22;6.15;;;4.50;;
22040;SDS011;11184;52.444;13.578;2023-07-16T02:20:06;3.13;;;2.92;;
22040;SDS011;11184;52.444;13.578;2023-07-16T02:22:51;3.85;;;3.55;;
22040;SDS011;11184;52.444;13.578;2023-07-16T02:25:36;3.75;;;3.45;;
22040;SDS011;11184;52.444;13.578;2023-07-16T02:28:21;11.10;;;3.75;;
22040;SDS011;11184;52.444;13.578;2023-07-16T02:31:05;3.08;;;2.78;;
22040;SDS011;11184;52.444;13.578;2023-07-16T02:33:50;2.70;;;2.50;;
22040;SDS011;11184;52.444;13.578;2023-07-16T02:36:35;3.35;;;2.88;;
22040;SDS011;11184;52.444;13.578;2023-07-16T02:39:19;3.92;;;1.90;;
22040;SDS011;11184;52.444;13.578;2023-07-16T02:42:04;3.03;;;2.05;;
22040;SDS011;11184;52.444;13.578;2023-07-16T02:44:49;2.08;;;1.75;;
22040;SDS011;11184;52.444;13.578;2023-07-16T02:47:33;4.88;;;1.65;;
22040;SDS011;11184;52.444;13.578;2023-07-16T02:50:18;3.05;;;2.08;;
22040;SDS011;11184;52.444;13.578;2023-07-16T02:53:03;3.10;;;1.85;;
22040;SDS011;11184;52.444;13.578;2023-07-16T02:55:48;2.25;;;1.73;;
22040;SDS011;11184;52.444;13.578;2023-07-16T02:58:32;2.58;;;2.13;;
22040;SDS011;11184;52.444;13.578;2023-07-16T03:01:17;2.15;;;1.85;;
22040;SDS011;11184;52.444;13.578;2023-07-16T03:04:02;2.13;;;1.30;;
22040;SDS011;11184;52.444;13.578;2023-07-16T03:06:46;3.25;;;1.60;;
22040;SDS011;11184;52.444;13.578;2023-07-16T03:09:31;4.93;;;3.05;;
22040;SDS011;11184;52.444;13.578;2023-07-16T03:12:15;1.48;;;1.38;;
22040;SDS011;11184;52.444;13.578;2023-07-16T03:15:00;1.98;;;1.77;;
22040;SDS011;11184;52.444;13.578;2023-07-16T03:17:45;1.85;;;1.30;;
22040;SDS011;11184;52.444;13.578;2023-07-16T03:20:29;2.10;;;1.50;;
22040;SDS011;11184;52.444;13.578;2023-07-16T03:23:14;5.18;;;1.85;;
22040;SDS011;11184;52.444;13.578;2023-07-16T03:25:59;2.13;;;1.40;;
22040;SDS011;11184;52.444;13.578;2023-07-16T03:28:44;2.20;;;2.00;;
22040;SDS011;11184;52.444;13.578;2023-07-16T03:31:28;1.95;;;1.70;;
22040;SDS011;11184;52.444;13.578;2023-07-16T03:34:13;1.50;;;1.40;;
22040;SDS011;11184;52.444;13.578;2023-07-16T03:36:57;1.45;;;1.33;;
22040;SDS011;11184;52.444;13.578;2023-07-16T03:39:42;2.47;;;1.83;;
22040;SDS011;11184;52.444;13.578;2023-07-16T03:42:27;2.13;;;1.50;;
22040;SDS011;11184;52.444;13.578;2023-07-16T03:45:11;3.13;;;2.17;;
22040;SDS011;11184;52.444;13.578;2023-07-16T03:47:57;2.30;;;1.88;;
22040;SDS011;11184;52.444;13.578;2023-07-16T03:50:41;2.80;;;2.05;;
22040;SDS011;11184;52.444;13.578;2023-07-16T03:53:26;2.20;;;1.95;;
22040;SDS011;11184;52.444;13.578;2023-07-16T03:56:11;2.67;;;2.20;;
22040;SDS011;11184;52.444;13.578;2023-07-16T03:58:55;3.13;;;2.53;;
22040;SDS011;11184;52.444;13.578;2023-07-16T04:01:40;3.80;;;2.55;;
22040;SDS011;11184;52.444;13.578;2023-07-16T04:04:24;3.45;;;2.17;;
22040;SDS011;11184;52.444;13.578;2023-07-16T04:07:09;4.93;;;2.45;;
22040;SDS011;11184;52.444;13.578;2023-07-16T04:09:53;2.97;;;2.60;;
22040;SDS011;11184;52.444;13.578;2023-07-16T04:12:38;2.63;;;2.42;;
22040;SDS011;11184;52.444;13.578;2023-07-16T04:15:23;3.83;;;3.50;;
22040;SDS011;11184;52.444;13.578;2023-07-16T04:18:07;2.60;;;2.40;;
22040;SDS011;11184;52.444;13.578;2023-07-16T04:20:52;3.72;;;2.90;;
22040;SDS011;11184;52.444;13.578;2023-07-16T04:23:37;3.88;;;3.58;;
22040;SDS011;11184;52.444;13.578;2023-07-16T04:26:22;2.90;;;2.70;;
22040;SDS011;11184;52.444;13.578;2023-07-16T04:29:06;4.10;;;3.67;;
22040;SDS011;11184;52.444;13.578;2023-07-16T04:31:51;8.55;;;3.47;;
22040;SDS011;11184;52.444;13.578;2023-07-16T04:34:35;4.70;;;3.35;;
22040;SDS011;11184;52.444;13.578;2023-07-16T04:37:20;4.30;;;3.70;;
22040;SDS011;11184;52.444;13.578;2023-07-16T04:40:05;5.50;;;4.35;;
22040;SDS011;11184;52.444;13.578;2023-07-16T04:42:50;6.32;;;4.68;;
22040;SDS011;11184;52.444;13.578;2023-07-16T04:45:35;8.23;;;5.22;;
22040;SDS011;11184;52.444;13.578;2023-07-16T04:48:20;5.88;;;4.90;;
22040;SDS011;11184;52.444;13.578;2023-07-16T04:51:04;5.05;;;4.55;;
22040;SDS011;11184;52.444;13.578;2023-07-16T04:53:49;5.97;;;5.30;;
22040;SDS011;11184;52.444;13.578;2023-07-16T04:56:34;5.78;;;5.10;;
22040;SDS011;11184;52.444;13.578;2023-07-16T04:59:18;6.40;;;4.90;;
22040;SDS011;11184;52.444;13.578;2023-07-16T05:02:04;5.93;;;4.57;;
22040;SDS011;11184;52.444;13.578;2023-07-16T05:04:49;7.15;;;4.90;;
22040;SDS011;11184;52.444;13.578;2023-07-16T05:07:34;5.50;;;4.10;;
22040;SDS011;11184;52.444;13.578;2023-07-16T05:10:18;5.03;;;4.57;;
22040;SDS011;11184;52.444;13.578;2023-07-16T05:13:03;5.38;;;4.88;;
22040;SDS011;11184;52.444;13.578;2023-07-16T05:15:48;6.15;;;5.55;;
22040;SDS011;11184;52.444;13.578;2023-07-16T05:18:32;4.57;;;4.18;;
22040;SDS011;11184;52.444;13.578;2023-07-16T05:21:17;5.00;;;4.57;;
22040;SDS011;11184;52.444;13.578;2023-07-16T05:24:01;8.30;;;5.32;;
22040;SDS011;11184;52.444;13.578;2023-07-16T05:26:46;5.60;;;4.97;;
22040;SDS011;11184;52.444;13.578;2023-07-16T05:29:32;5.35;;;4.95;;
22040;SDS011;11184;52.444;13.578;2023-07-16T05:32:16;6.72;;;4.28;;
22040;SDS011;11184;52.444;13.578;2023-07-16T05:35:01;3.92;;;3.50;;
22040;SDS011;11184;52.444;13.578;2023-07-16T05:37:45;4.90;;;4.43;;
22040;SDS011;11184;52.444;13.578;2023-07-16T05:40:30;4.75;;;2.80;;
22040;SDS011;11184;52.444;13.578;2023-07-16T05:43:14;3.53;;;3.22;;
22040;SDS011;11184;52.444;13.578;2023-07-16T05:45:59;6.10;;;3.25;;
22040;SDS011;11184;52.444;13.578;2023-07-16T05:48:44;3.53;;;3.17;;
22040;SDS011;11184;52.444;13.578;2023-07-16T05:51:28;2.72;;;2.53;;
22040;SDS011;11184;52.444;13.578;2023-07-16T05:54:13;3.35;;;3.05;;
22040;SDS011;11184;52.444;13.578;2023-07-16T05:56:58;2.72;;;2.53;;
22040;SDS011;11184;52.444;13.578;2023-07-16T05:59:43;4.03;;;2.78;;
22040;SDS011;11184;52.444;13.578;2023-07-16T06:02:28;4.53;;;2.83;;
22040;SDS011;11184;52.444;13.578;2023-07-16T06:05:12;3.25;;;2.95;;
22040;SDS011;11184;52.444;13.578;2023-07-16T06:07:57;3.78;;;2.78;;
22040;SDS011;11184;52.444;13.578;2023-07-16T06:10:42;3.13;;;2.83;;
22040;SDS011;11184;52.444;13.578;2023-07-16T06:13:27;3.15;;;2.85;;
22040;SDS011;11184;52.444;13.578;2023-07-16T06:16:11;2.05;;;1.85;;
22040;SDS011;11184;52.444;13.578;2023-07-16T06:18:56;3.67;;;2.88;;
22040;SDS011;11184;52.444;13.578;2023-07-16T06:21:41;2.60;;;2.28;;
22040;SDS011;11184;52.444;13.578;2023-07-16T06:24:25;3.25;;;2.25;;
22040;SDS011;11184;52.444;13.578;2023-07-16T06:27:10;4.05;;;2.75;;
22040;SDS011;11184;52.444;13.578;2023-07-16T06:29:54;4.93;;;2.17;;
22040;SDS011;11184;52.444;13.578;2023-07-16T06:32:39;4.00;;;2.47;;
22040;SDS011;11184;52.444;13.578;2023-07-16T06:35:24;2.72;;;2.40;;
22040;SDS011;11184;52.444;13.578;2023-07-16T06:38:09;3.53;;;2.00;;
22040;SDS011;11184;52.444;13.578;2023-07-16T06:40:54;4.57;;;2.83;;
22040;SDS011;11184;52.444;13.578;2023-07-16T06:43:39;3.03;;;2.45;;
22040;SDS011;11184;52.444;13.578;2023-07-16T06:46:24;6.38;;;2.53;;
22040;SDS011;11184;52.444;13.578;2023-07-16T06:49:08;3.05;;;2.70;;
22040;SDS011;11184;52.444;13.578;2023-07-16T06:51:53;3.03;;;2.72;;
22040;SDS011;11184;52.444;13.578;2023-07-16T06:54:37;3.70;;;2.83;;
22040;SDS011;11184;52.444;13.578;2023-07-16T06:57:25;3.15;;;2.50;;
22040;SDS011;11184;52.444;13.578;2023-07-16T07:00:09;3.65;;;1.92;;
22040;SDS011;11184;52.444;13.578;2023-07-16T07:02:55;2.35;;;1.98;;
22040;SDS011;11184;52.444;13.578;2023-07-16T07:05:42;2.78;;;2.30;;
22040;SDS011;11184;52.444;13.578;2023-07-16T07:08:27;7.03;;;3.00;;
22040;SDS011;11184;52.444;13.578;2023-07-16T07:11:11;3.13;;;2.50;;
22040;SDS011;11184;52.444;13.578;2023-07-16T07:13:56;2.88;;;2.53;;
22040;SDS011;11184;52.444;13.578;2023-07-16T07:16:41;2.33;;;2.10;;
22040;SDS011;11184;52.444;13.578;2023-07-16T07:19:25;2.95;;;2.42;;
22040;SDS011;11184;52.444;13.578;2023-07-16T07:22:10;2.35;;;2.15;;
22040;SDS011;11184;52.444;13.578;2023-07-16T07:24:55;4.30;;;2.10;;
22040;SDS011;11184;52.444;13.578;2023-07-16T07:27:40;3.55;;;1.80;;
22040;SDS011;11184;52.444;13.578;2023-07-16T07:30:24;3.45;;;1.90;;
22040;SDS011;11184;52.444;13.578;2023-07-16T07:33:09;3.70;;;2.28;;
22040;SDS011;11184;52.444;13.578;2023-07-16T07:35:54;3.75;;;2.03;;
22040;SDS011;11184;52.444;13.578;2023-07-16T07:38:41;4.03;;;2.13;;
22040;SDS011;11184;52.444;13.578;2023-07-16T07:41:26;3.15;;;2.45;;
22040;SDS011;11184;52.444;13.578;2023-07-16T07:44:11;2.53;;;1.92;;
22040;SDS011;11184;52.444;13.578;2023-07-16T07:46:55;2.40;;;1.80;;
22040;SDS011;11184;52.444;13.578;2023-07-16T07:49:40;4.50;;;1.88;;
22040;SDS011;11184;52.444;13.578;2023-07-16T07:52:26;3.17;;;1.70;;
22040;SDS011;11184;52.444;13.578;2023-07-16T07:55:11;3.67;;;2.03;;
22040;SDS011;11184;52.444;13.578;2023-07-16T07:57:56;3.78;;;2.38;;
22040;SDS011;11184;52.444;13.578;2023-07-16T08:00:40;2.30;;;1.73;;
22040;SDS011;11184;52.444;13.578;2023-07-16T08:03:25;4.25;;;2.03;;
22040;SDS011;11184;52.444;13.578;2023-07-16T08:06:10;1.45;;;1.33;;
22040;SDS011;11184;52.444;13.578;2023-07-16T08:08:56;4.28;;;2.40;;
22040;SDS011;11184;52.444;13.578;2023-07-16T08:11:40;2.30;;;1.98;;
22040;SDS011;11184;52.444;13.578;2023-07-16T08:14:25;2.65;;;1.88;;
22040;SDS011;11184;52.444;13.578;2023-07-16T08:17:09;3.53;;;2.35;;
22040;SDS011;11184;52.444;13.578;2023-07-16T08:19:54;2.28;;;1.50;;
22040;SDS011;11184;52.444;13.578;2023-07-16T08:22:38;2.33;;;2.15;;
22040;SDS011;11184;52.444;13.578;2023-07-16T08:28:08;3.28;;;1.85;;
22040;SDS011;11184;52.444;13.578;2023-07-16T08:30:53;2.03;;;1.30;;
22040;SDS011;11184;52.444;13.578;2023-07-16T08:33:38;1.75;;;1.23;;
22040;SDS011;11184;52.444;13.578;2023-07-16T08:36:23;3.50;;;1.95;;
22040;SDS011;11184;52.444;13.578;2023-07-16T08:39:07;2.45;;;1.67;;
22040;SDS011;11184;52.444;13.578;2023-07-16T08:41:52;3.13;;;1.80;;
22040;SDS011;11184;52.444;13.578;2023-07-16T08:44:37;3.00;;;1.95;;
22040;SDS011;11184;52.444;13.578;2023-07-16T08:47:22;1.95;;;1.00;;
22040;SDS011;11184;52.444;13.578;2023-07-16T08:50:07;2.78;;;1.27;;
22040;SDS011;11184;52.444;13.578;2023-07-16T08:52:52;2.28;;;1.27;;
22040;SDS011;11184;52.444;13.578;2023-07-16T08:55:38;3.28;;;1.55;;
22040;SDS011;11184;52.444;13.578;2023-07-16T08:58:23;1.73;;;1.17;;
22040;SDS011;11184;52.444;13.578;2023-07-16T09:01:08;1.52;;;1.02;;
22040;SDS011;11184;52.444;13.578;2023-07-16T09:03:53;2.58;;;1.00;;
22040;SDS011;11184;52.444;13.578;2023-07-16T09:06:38;4.20;;;1.20;;
22040;SDS011;11184;52.444;13.578;2023-07-16T09:09:23;1.73;;;1.33;;
22040;SDS011;11184;52.444;13.578;2023-07-16T09:12:12;3.90;;;1.90;;
22040;SDS011;11184;52.444;13.578;2023-07-16T09:14:57;2.42;;;1.02;;
22040;SDS011;11184;52.444;13.578;2023-07-16T09:17:41;2.10;;;1.10;;
22040;SDS011;11184;52.444;13.578;2023-07-16T09:20:26;1.60;;;1.02;;
22040;SDS011;11184;52.444;13.578;2023-07-16T09:23:17;3.30;;;1.35;;
22040;SDS011;11184;52.444;13.578;2023-07-16T09:26:02;3.83;;;1.45;;
22040;SDS011;11184;52.444;13.578;2023-07-16T09:28:50;3.25;;;1.42;;
22040;SDS011;11184;52.444;13.578;2023-07-16T09:31:35;1.17;;;0.98;;
22040;SDS011;11184;52.444;13.578;2023-07-16T09:34:19;3.22;;;1.30;;
22040;SDS011;11184;52.444;13.578;2023-07-16T09:37:04;3.42;;;1.30;;
22040;SDS011;11184;52.444;13.578;2023-07-16T09:39:49;2.47;;;1.60;;
22040;SDS011;11184;52.444;13.578;2023-07-16T09:42:40;1.75;;;1.20;;
22040;SDS011;11184;52.444;13.578;2023-07-16T09:45:25;1.83;;;1.23;;
22040;SDS011;11184;52.444;13.578;2023-07-16T09:48:10;3.25;;;1.77;;
22040;SDS011;11184;52.444;13.578;2023-07-16T09:50:54;1.52;;;1.17;;
22040;SDS011;11184;52.444;13.578;2023-07-16T09:53:41;3.83;;;1.38;;
22040;SDS011;11184;52.444;13.578;2023-07-16T09:56:26;2.80;;;1.10;;
22040;SDS011;11184;52.444;13.578;2023-07-16T09:59:14;1.80;;;1.27;;
22040;SDS011;11184;52.444;13.578;2023-07-16T10:02:00;3.20;;;1.60;;
22040;SDS011;11184;52.444;13.578;2023-07-16T10:04:44;3.85;;;1.45;;
22040;SDS011;11184;52.444;13.578;2023-07-16T10:07:29;2.25;;;1.60;;
22040;SDS011;11184;52.444;13.578;2023-07-16T10:10:16;2.78;;;1.60;;
22040;SDS011;11184;52.444;13.578;2023-07-16T10:13:01;2.90;;;1.60;;
22040;SDS011;11184;52.444;13.578;2023-07-16T10:18:37;4.78;;;1.73;;
22040;SDS011;11184;52.444;13.578;2023-07-16T10:21:22;3.05;;;1.95;;
22040;SDS011;11184;52.444;13.578;2023-07-16T10:24:16;2.72;;;2.03;;
22040;SDS011;11184;52.444;13.578;2023-07-16T10:27:03;3.97;;;1.65;;
22040;SDS011;11184;52.444;13.578;2023-07-16T10:29:48;2.65;;;1.50;;
22040;SDS011;11184;52.444;13.578;2023-07-16T10:32:33;3.00;;;1.75;;
22040;SDS011;11184;52.444;13.578;2023-07-16T10:35:18;3.42;;;1.92;;
22040;SDS011;11184;52.444;13.578;2023-07-16T10:38:03;2.80;;;1.77;;
22040;SDS011;11184;52.444;13.578;2023-07-16T10:40:47;3.60;;;1.83;;
22040;SDS011;11184;52.444;13.578;2023-07-16T10:43:32;2.35;;;1.52;;
22040;SDS011;11184;52.444;13.578;2023-07-16T10:46:17;3.35;;;1.42;;
22040;SDS011;11184;52.444;13.578;2023-07-16T10:49:02;4.32;;;1.75;;
22040;SDS011;11184;52.444;13.578;2023-07-16T10:51:46;2.85;;;1.65;;
22040;SDS011;11184;52.444;13.578;2023-07-16T10:54:31;2.65;;;1.50;;
22040;SDS011;11184;52.444;13.578;2023-07-16T10:57:16;2.53;;;1.73;;
22040;SDS011;11184;52.444;13.578;2023-07-16T11:00:02;3.67;;;2.17;;
22040;SDS011;11184;52.444;13.578;2023-07-16T11:02:49;4.78;;;1.50;;
22040;SDS011;11184;52.444;13.578;2023-07-16T11:05:34;2.83;;;1.85;;
22040;SDS011;11184;52.444;13.578;2023-07-16T11:08:23;2.60;;;1.70;;
22040;SDS011;11184;52.444;13.578;2023-07-16T11:11:07;2.25;;;1.52;;
22040;SDS011;11184;52.444;13.578;2023-07-16T11:13:52;1.58;;;1.15;;
22040;SDS011;11184;52.444;13.578;2023-07-16T11:16:37;2.58;;;1.10;;
22040;SDS011;11184;52.444;13.578;2023-07-16T11:19:22;2.75;;;1.85;;
22040;SDS011;11184;52.444;13.578;2023-07-16T11:22:07;2.42;;;1.23;;
22040;SDS011;11184;52.444;13.578;2023-07-16T11:24:52;5.30;;;1.27;;
22040;SDS011;11184;52.444;13.578;2023-07-16T11:27:37;3.70;;;1.60;;
22040;SDS011;11184;52.444;13.578;2023-07-16T11:30:24;2.92;;;1.30;;
22040;SDS011;11184;52.444;13.578;2023-07-16T11:33:11;3.00;;;1.10;;
22040;SDS011;11184;52.444;13.578;2023-07-16T11:35:55;1.60;;;1.17;;
22040;SDS011;11184;52.444;13.578;2023-07-16T11:38:40;3.05;;;2.13;;
22040;SDS011;11184;52.444;13.578;2023-07-16T11:41:25;2.38;;;1.23;;
22040;SDS011;11184;52.444;13.578;2023-07-16T11:44:10;3.90;;;1.80;;
22040;SDS011;11184;52.444;13.578;2023-07-16T11:46:58;2.47;;;1.25;;
22040;SDS011;11184;52.444;13.578;2023-07-16T11:49:42;3.95;;;1.60;;
22040;SDS011;11184;52.444;13.578;2023-07-16T11:52:27;4.00;;;1.17;;
22040;SDS011;11184;52.444;13.578;2023-07-16T11:55:12;3.83;;;1.70;;
22040;SDS011;11184;52.444;13.578;2023-07-16T11:57:57;4.60;;;1.25;;
22040;SDS011;11184;52.444;13.578;2023-07-16T12:00:42;4.43;;;1.90;;
22040;SDS011;11184;52.444;13.578;2023-07-16T12:03:27;3.45;;;1.95;;
22040;SDS011;11184;52.444;13.578;2023-07-16T12:06:12;3.22;;;1.40;;
22040;SDS011;11184;52.444;13.578;2023-07-16T12:08:56;9.32;;;1.73;;
22040;SDS011;11184;52.444;13.578;2023-07-16T12:11:41;3.25;;;1.42;;
22040;SDS011;11184;52.444;13.578;2023-07-16T12:14:26;2.42;;;1.23;;
22040;SDS011;11184;52.444;13.578;2023-07-16T12:17:11;5.72;;;0.85;;
22040;SDS011;11184;52.444;13.578;2023-07-16T12:19:56;3.45;;;2.05;;
22040;SDS011;11184;52.444;13.578;2023-07-16T12:22:40;2.55;;;1.08;;
22040;SDS011;11184;52.444;13.578;2023-07-16T12:25:25;3.28;;;1.23;;
22040;SDS011;11184;52.444;13.578;2023-07-16T12:28:10;1.98;;;1.00;;
22040;SDS011;11184;52.444;13.578;2023-07-16T12:30:55;4.72;;;1.48;;
22040;SDS011;11184;52.444;13.578;2023-07-16T12:33:40;2.85;;;1.30;;
22040;SDS011;11184;52.444;13.578;2023-07-16T12:36:25;3.03;;;1.33;;
22040;SDS011;11184;52.444;13.578;2023-07-16T12:39:09;3.97;;;2.00;;
22040;SDS011;11184;52.444;13.578;2023-07-16T12:41:54;5.22;;;1.30;;
22040;SDS011;11184;52.444;13.578;2023-07-16T12:44:39;3.63;;;1.38;;
22040;SDS011;11184;52.444;13.578;2023-07-16T12:47:24;6.47;;;1.88;;
22040;SDS011;11184;52.444;13.578;2023-07-16T12:50:08;3.47;;;1.67;;
22040;SDS011;11184;52.444;13.578;2023-07-16T12:52:53;2.90;;;0.90;;
22040;SDS011;11184;52.444;13.578;2023-07-16T12:55:38;4.72;;;1.55;;
22040;SDS011;11184;52.444;13.578;2023-07-16T12:58:22;1.85;;;1.25;;
22040;SDS011;11184;52.444;13.578;2023-07-16T13:01:07;6.20;;;1.70;;
22040;SDS011;11184;52.444;13.578;2023-07-16T13:03:51;4.60;;;1.75;;
22040;SDS011;11184;52.444;13.578;2023-07-16T13:06:36;3.42;;;1.15;;
22040;SDS011;11184;52.444;13.578;2023-07-16T13:09:20;3.38;;;1.20;;
22040;SDS011;11184;52.444;13.578;2023-07-16T13:12:06;4.25;;;1.38;;
22040;SDS011;11184;52.444;13.578;2023-07-16T13:14:51;2.75;;;1.20;;
22040;SDS011;11184;52.444;13.578;2023-07-16T13:17:36;2.28;;;1.35;;
22040;SDS011;11184;52.444;13.578;2023-07-16T13:20:21;1.77;;;1.00;;
22040;SDS011;11184;52.444;13.578;2023-07-16T13:23:07;2.85;;;1.33;;
22040;SDS011;11184;52.444;13.578;2023-07-16T13:25:52;3.05;;;1.38;;
22040;SDS011;11184;52.444;13.578;2023-07-16T13:28:37;2.50;;;1.38;;
22040;SDS011;11184;52.444;13.578;2023-07-16T13:31:21;4.28;;;1.10;;
22040;SDS011;11184;52.444;13.578;2023-07-16T13:34:06;2.65;;;1.23;;
22040;SDS011;11184;52.444;13.578;2023-07-16T13:36:51;5.47;;;1.63;;
22040;SDS011;11184;52.444;13.578;2023-07-16T13:39:35;2.35;;;1.63;;
22040;SDS011;11184;52.444;13.578;2023-07-16T13:42:20;2.78;;;1.20;;
22040;SDS011;11184;52.444;13.578;2023-07-16T13:45:05;2.95;;;1.45;;
22040;SDS011;11184;52.444;13.578;2023-07-16T13:47:50;2.70;;;1.17;;
22040;SDS011;11184;52.444;13.578;2023-07-16T13:50:36;1.98;;;1.30;;
22040;SDS011;11184;52.444;13.578;2023-07-16T13:53:20;1.48;;;1.00;;
22040;SDS011;11184;52.444;13.578;2023-07-16T13:56:05;1.75;;;0.85;;
22040;SDS011;11184;52.444;13.578;2023-07-16T13:58:49;3.75;;;1.58;;
22040;SDS011;11184;52.444;13.578;2023-07-16T14:01:37;3.53;;;1.25;;
22040;SDS011;11184;52.444;13.578;2023-07-16T14:04:22;3.03;;;1.27;;
22040;SDS011;11184;52.444;13.578;2023-07-16T14:07:08;2.85;;;1.40;;
22040;SDS011;11184;52.444;13.578;2023-07-16T14:09:52;1.52;;;1.00;;
22040;SDS011;11184;52.444;13.578;2023-07-16T14:12:37;3.30;;;1.50;;
22040;SDS011;11184;52.444;13.578;2023-07-16T14:15:22;2.25;;;1.30;;
22040;SDS011;11184;52.444;13.578;2023-07-16T14:18:07;5.45;;;0.90;;
22040;SDS011;11184;52.444;13.578;2023-07-16T14:20:51;4.40;;;1.10;;
22040;SDS011;11184;52.444;13.578;2023-07-16T14:23:36;3.67;;;1.25;;
22040;SDS011;11184;52.444;13.578;2023-07-16T14:26:21;1.80;;;0.93;;
22040;SDS011;11184;52.444;13.578;2023-07-16T14:29:05;1.67;;;0.85;;
22040;SDS011;11184;52.444;13.578;2023-07-16T14:31:50;2.45;;;1.20;;
22040;SDS011;11184;52.444;13.578;2023-07-16T14:34:34;1.75;;;0.93;;
22040;SDS011;11184;52.444;13.578;2023-07-16T14:37:19;5.50;;;1.42;;
22040;SDS011;11184;52.444;13.578;2023-07-16T14:40:03;2.40;;;0.80;;
22040;SDS011;11184;52.444;13.578;2023-07-16T14:42:51;2.13;;;1.10;;
22040;SDS011;11184;52.444;13.578;2023-07-16T14:45:36;3.03;;;1.13;;
22040;SDS011;11184;52.444;13.578;2023-07-16T14:48:20;1.10;;;0.80;;
22040;SDS011;11184;52.444;13.578;2023-07-16T14:51:06;2.60;;;1.60;;
22040;SDS011;11184;52.444;13.578;2023-07-16T14:53:51;1.67;;;0.85;;
22040;SDS011;11184;52.444;13.578;2023-07-16T14:56:39;2.55;;;1.35;;
22040;SDS011;11184;52.444;13.578;2023-07-16T14:59:24;1.40;;;0.93;;
22040;SDS011;11184;52.444;13.578;2023-07-16T15:02:09;3.10;;;0.80;;
22040;SDS011;11184;52.444;13.578;2023-07-16T15:04:53;3.25;;;1.27;;
22040;SDS011;11184;52.444;13.578;2023-07-16T15:07:38;1.75;;;1.08;;
22040;SDS011;11184;52.444;13.578;2023-07-16T15:10:22;2.60;;;0.88;;
22040;SDS011;11184;52.444;13.578;2023-07-16T15:13:07;2.97;;;1.15;;
22040;SDS011;11184;52.444;13.578;2023-07-16T15:15:51;3.60;;;1.08;;
22040;SDS011;11184;52.444;13.578;2023-07-16T15:18:36;3.15;;;1.10;;
22040;SDS011;11184;52.444;13.578;2023-07-16T15:21:21;6.22;;;1.02;;
22040;SDS011;11184;52.444;13.578;2023-07-16T15:24:05;2.75;;;1.00;;
22040;SDS011;11184;52.444;13.578;2023-07-16T15:26:50;4.88;;;1.23;;
22040;SDS011;11184;52.444;13.578;2023-07-16T15:29:36;3.63;;;1.23;;
22040;SDS011;11184;52.444;13.578;2023-07-16T15:32:21;3.53;;;1.48;;
22040;SDS011;11184;52.444;13.578;2023-07-16T15:35:06;3.28;;;1.10;;
22040;SDS011;11184;52.444;13.578;2023-07-16T15:37:51;4.47;;;1.00;;
22040;SDS011;11184;52.444;13.578;2023-07-16T15:40:35;2.92;;;0.90;;
22040;SDS011;11184;52.444;13.578;2023-07-16T15:43:20;1.75;;;0.95;;
22040;SDS011;11184;52.444;13.578;2023-07-16T15:46:04;4.72;;;0.80;;
22040;SDS011;11184;52.444;13.578;2023-07-16T15:48:49;2.58;;;1.00;;
22040;SDS011;11184;52.444;13.578;2023-07-16T15:51:33;3.05;;;1.02;;
22040;SDS011;11184;52.444;13.578;2023-07-16T15:54:24;5.95;;;2.03;;
22040;SDS011;11184;52.444;13.578;2023-07-16T15:57:09;6.68;;;1.30;;
22040;SDS011;11184;52.444;13.578;2023-07-16T15:59:53;3.22;;;1.23;;
22040;SDS011;11184;52.444;13.578;2023-07-16T16:02:38;4.88;;;1.25;;
22040;SDS011;11184;52.444;13.578;2023-07-16T16:05:23;4.72;;;0.80;;
22040;SDS011;11184;52.444;13.578;2023-07-16T16:08:14;1.48;;;0.90;;
22040;SDS011;11184;52.444;13.578;2023-07-16T16:10:59;2.83;;;0.98;;
22040;SDS011;11184;52.444;13.578;2023-07-16T16:13:44;8.30;;;1.17;;
22040;SDS011;11184;52.444;13.578;2023-07-16T16:16:29;1.83;;;1.10;;
22040;SDS011;11184;52.444;13.578;2023-07-16T16:19:13;1.95;;;1.00;;
22040;SDS011;11184;52.444;13.578;2023-07-16T16:21:58;2.25;;;1.00;;
22040;SDS011;11184;52.444;13.578;2023-07-16T16:24:43;4.05;;;1.27;;
22040;SDS011;11184;52.444;13.578;2023-07-16T16:27:27;1.83;;;0.90;;
22040;SDS011;11184;52.444;13.578;2023-07-16T16:30:12;2.85;;;1.20;;